This is the latest recevied weather packets stored in our database for station/object N0THY. If no packets are shown the sender has not sent any weather packets the latest 10 day(s).
| Time | Temp. | Humidity | Pressure | Rain* | Wind** | Luminosity | Snow |
|---|---|---|---|---|---|---|---|
| 1777920042 | 18.89° C | 31% | 1011.5 hPa | 0 mm | - | - | - |
| 1777919139 | 20° C | 26% | 1011.5 hPa | 0 mm | - | - | - |
| 1777919035 | 20.56° C | 29% | 1011.8 hPa | 0 mm | - | - | - |
| 1777918236 | 21.11° C | 27% | 1011.4 hPa | 0 mm | - | - | - |
| 1777917333 | 20.56° C | 29% | 1011.8 hPa | 0 mm | - | - | - |
| 1777916430 | 20° C | 28% | 1011.9 hPa | 0 mm | - | - | - |
| 1777915527 | 20.56° C | 28% | 1011.7 hPa | 0 mm | - | - | - |
| 1777914624 | 20.56° C | 28% | 1011.8 hPa | 0 mm | - | - | - |
| 1777913721 | 21.11° C | 28% | 1012.1 hPa | 0 mm | - | - | - |
| 1777912818 | 19.44° C | 32% | 1012.5 hPa | 0 mm | - | - | - |
| 1777911915 | 18.33° C | 34% | 1012.8 hPa | 0 mm | - | - | - |
| 1777911012 | 17.78° C | 36% | 1013.1 hPa | 0 mm | - | - | - |
| 1777910109 | 18.33° C | 36% | 1013.4 hPa | 0 mm | - | - | - |
| 1777909206 | 17.78° C | 38% | 1013.5 hPa | 0 mm | - | - | - |
| 1777908303 | 16.67° C | 43% | 1013.8 hPa | 0 mm | - | - | - |
| 1777907400 | 15.56° C | 46% | 1013.9 hPa | 0 mm | - | - | - |
| 1777906497 | 13.33° C | 53% | 1014.1 hPa | 0 mm | - | - | - |
| 1777905595 | 11.67° C | 58% | 1014.3 hPa | 0 mm | - | - | - |
| 1777904692 | 11.11° C | 60% | 1014.4 hPa | 0 mm | - | - | - |
| 1777903789 | 11.11° C | 60% | 1014.5 hPa | 0 mm | - | - | - |
| 1777901983 | 10.56° C | 57% | 1014.6 hPa | 0 mm | - | - | - |
| 1777901080 | 11.11° C | 59% | 1013.8 hPa | 0 mm | - | - | - |
| 1777900177 | 10.56° C | 58% | 1014 hPa | 0 mm | - | - | - |
| 1777899274 | 10.56° C | 53% | 1014.2 hPa | 0 mm | - | - | - |
| 1777898371 | 10° C | 51% | 1014.2 hPa | 0 mm | - | - | - |
* Rain since midnight (hover to see other rain measurements)
** Current wind speed in m/s (hover to see current wind gust speed)